createdAt,value
2022-09-30T00:01:37.124Z,98692.81
2022-09-30T00:04:05.577Z,98693.63
2022-09-30T00:06:35.171Z,98691.97
2022-09-30T00:09:03.408Z,98700.34
2022-09-30T00:11:33.907Z,98691.97
2022-09-30T00:14:02.697Z,98705.38
2022-09-30T00:16:32.731Z,98707.03
2022-09-30T00:19:03.787Z,98705.38
2022-09-30T00:21:33.803Z,98700.34
2022-09-30T00:24:02.175Z,98715.41
2022-09-30T00:26:30.341Z,98713.75
2022-09-30T00:29:00.222Z,98703.69
2022-09-30T00:31:30.736Z,98700.34
2022-09-30T00:34:11.440Z,98698.66
2022-09-30T00:36:44.517Z,98701.22
2022-09-30T00:39:14.693Z,98704.56
2022-09-30T00:41:42.847Z,98708.75
2022-09-30T00:44:45.863Z,98710.44
2022-09-30T00:47:39.339Z,98705.44
2022-09-30T00:50:16.992Z,98712.13
2022-09-30T00:52:50.233Z,98704.59
2022-09-30T00:55:27.458Z,98702.91
2022-09-30T00:57:58.125Z,98710.44
2022-09-30T01:00:26.000Z,98717.16
2022-09-30T01:02:55.313Z,98711.31
2022-09-30T01:05:24.228Z,98707.13
2022-09-30T01:07:54.431Z,98703.75
2022-09-30T01:10:22.207Z,98706.25
2022-09-30T01:12:50.100Z,98703.75
2022-09-30T01:15:18.248Z,98712.16
2022-09-30T01:17:55.148Z,98712.97
2022-09-30T01:21:02.342Z,98715.47
2022-09-30T01:24:08.091Z,98707.94
2022-09-30T01:27:10.677Z,98712.13
2022-09-30T01:30:05.158Z,98708.78
2022-09-30T01:33:17.795Z,98707.94
2022-09-30T01:36:02.268Z,98713.78
2022-09-30T01:38:37.680Z,98698.69
2022-09-30T01:41:10.983Z,98702.03
2022-09-30T01:43:46.803Z,98709.53
2022-09-30T01:46:22.570Z,98706.22
2022-09-30T01:49:00.762Z,98699.53
2022-09-30T01:51:36.199Z,98704.56
2022-09-30T01:54:11.160Z,98705.38
2022-09-30T01:56:43.750Z,98712.91
2022-09-30T01:59:15.586Z,98695.31
2022-09-30T02:01:48.932Z,98712.91
2022-09-30T02:04:21.865Z,98713.75
2022-09-30T02:06:53.156Z,98716.28
2022-09-30T02:09:26.292Z,98713.81
2022-09-30T02:11:57.019Z,98705.44
2022-09-30T02:14:29.945Z,98706.28
2022-09-30T02:17:03.221Z,98706.28
2022-09-30T02:19:38.931Z,98707.94
2022-09-30T02:22:11.694Z,98707.94
2022-09-30T02:24:44.487Z,98708.75
2022-09-30T02:27:20.877Z,98717.16
2022-09-30T02:29:54.483Z,98706.28
2022-09-30T02:32:26.302Z,98718.84
2022-09-30T02:35:01.579Z,98715.50
2022-09-30T02:37:35.931Z,98715.47
2022-09-30T02:40:10.708Z,98712.97
2022-09-30T02:42:41.513Z,98717.16
2022-09-30T02:45:13.029Z,98710.47
2022-09-30T02:47:57.468Z,98712.13
2022-09-30T02:50:33.405Z,98707.09
2022-09-30T02:53:18.882Z,98717.16
2022-09-30T02:56:02.516Z,98717.97
2022-09-30T02:58:31.848Z,98709.63
2022-09-30T03:00:59.763Z,98722.19
2022-09-30T03:03:31.507Z,98721.34
2022-09-30T03:06:00.993Z,98718.81
2022-09-30T03:08:28.803Z,98714.59
2022-09-30T03:10:56.950Z,98717.09
2022-09-30T03:13:52.328Z,98713.75
2022-09-30T03:16:31.770Z,98710.41
2022-09-30T03:19:16.165Z,98720.44
2022-09-30T03:22:00.226Z,98705.34
2022-09-30T03:24:56.116Z,98714.56
2022-09-30T03:27:32.847Z,98709.53
2022-09-30T03:30:05.359Z,98712.06
2022-09-30T03:32:52.863Z,98720.41
2022-09-30T03:35:30.999Z,98718.75
2022-09-30T03:38:05.148Z,98721.25
2022-09-30T03:40:42.499Z,98720.41
2022-09-30T03:43:19.069Z,98731.31
2022-09-30T03:45:51.679Z,98722.97
2022-09-30T03:48:22.109Z,98718.78
2022-09-30T03:50:50.506Z,98722.94
2022-09-30T03:53:19.889Z,98718.75
2022-09-30T03:55:49.227Z,98712.06
2022-09-30T03:58:18.952Z,98722.94
2022-09-30T04:00:50.118Z,98715.41
2022-09-30T04:03:18.375Z,98722.13
2022-09-30T04:05:46.349Z,98728.88
2022-09-30T04:08:14.174Z,98725.53
2022-09-30T04:10:44.692Z,98709.63
2022-09-30T04:13:13.582Z,98724.69
2022-09-30T04:15:41.676Z,98728.91
2022-09-30T04:18:09.568Z,98727.22
2022-09-30T04:20:39.505Z,98728.03
2022-09-30T04:23:07.313Z,98726.34
2022-09-30T04:25:35.076Z,98728.88
2022-09-30T04:28:04.422Z,98726.38
2022-09-30T04:30:33.656Z,98709.63
2022-09-30T04:33:01.677Z,98729.72
2022-09-30T04:35:30.053Z,98727.22
2022-09-30T04:37:57.973Z,98729.69
2022-09-30T04:40:26.157Z,98727.19
2022-09-30T04:42:58.152Z,98725.53
2022-09-30T04:45:27.407Z,98728.88
2022-09-30T04:47:55.189Z,98722.19
2022-09-30T04:50:22.989Z,98720.50
2022-09-30T04:52:51.390Z,98724.69
2022-09-30T04:55:19.329Z,98723.84
2022-09-30T04:57:47.109Z,98718.84
2022-09-30T05:00:14.910Z,98717.16
2022-09-30T05:02:45.673Z,98717.16
2022-09-30T05:05:13.515Z,98721.34
2022-09-30T05:07:41.746Z,98721.34
2022-09-30T05:10:11.112Z,98722.16
2022-09-30T05:12:40.313Z,98719.66
2022-09-30T05:15:09.434Z,98725.53
2022-09-30T05:17:37.546Z,98728.03
2022-09-30T05:20:10.804Z,98719.66
2022-09-30T05:22:39.313Z,98730.53
2022-09-30T05:25:08.175Z,98744.78
2022-09-30T05:27:36.045Z,98740.63
2022-09-30T05:30:04.189Z,98740.59
2022-09-30T05:32:32.174Z,98735.56
2022-09-30T05:34:59.957Z,98743.94
2022-09-30T05:37:29.096Z,98751.47
2022-09-30T05:39:57.256Z,98738.94
2022-09-30T05:42:25.092Z,98750.66
2022-09-30T05:44:52.958Z,98755.66
2022-09-30T05:47:20.733Z,98760.69
2022-09-30T05:49:49.732Z,98754.00
2022-09-30T05:52:19.796Z,98754.00
2022-09-30T05:54:49.766Z,98758.19
2022-09-30T05:57:17.632Z,98762.34
2022-09-30T05:59:45.517Z,98750.63
2022-09-30T06:02:14.064Z,98770.75
2022-09-30T06:04:42.105Z,98767.41
2022-09-30T06:07:10.753Z,98764.03
2022-09-30T06:09:39.078Z,98775.75
2022-09-30T06:12:09.259Z,98768.22
2022-09-30T06:14:37.211Z,98776.59
2022-09-30T06:17:06.492Z,98779.94
2022-09-30T06:19:34.432Z,98789.97
2022-09-30T06:22:02.450Z,98792.47
2022-09-30T06:24:31.103Z,98789.16
2022-09-30T06:26:58.986Z,98795.03
2022-09-30T06:29:28.225Z,98798.38
2022-09-30T06:31:56.057Z,98802.56
2022-09-30T06:34:24.140Z,98801.75
2022-09-30T06:36:52.233Z,98797.56
2022-09-30T06:39:20.159Z,98806.78
2022-09-30T06:41:48.023Z,98803.41
2022-09-30T06:44:25.764Z,98807.63
2022-09-30T06:46:55.822Z,98810.09
2022-09-30T06:49:24.006Z,98810.94
2022-09-30T06:51:52.234Z,98808.44
2022-09-30T06:54:20.665Z,98812.59
2022-09-30T06:56:48.655Z,98817.63
2022-09-30T06:59:17.289Z,98817.63
2022-09-30T07:01:45.450Z,98802.53
2022-09-30T07:04:14.903Z,98810.94
2022-09-30T07:06:43.132Z,98822.66
2022-09-30T07:09:12.359Z,98814.28
2022-09-30T07:11:40.426Z,98821.78
2022-09-30T07:14:10.165Z,98826.00
2022-09-30T07:16:38.537Z,98817.59
2022-09-30T07:19:10.108Z,98831.84
2022-09-30T07:21:39.382Z,98829.38
2022-09-30T07:24:07.258Z,98837.75
2022-09-30T07:26:35.240Z,98838.59
2022-09-30T07:29:03.162Z,98846.13
2022-09-30T07:31:34.272Z,98841.09
2022-09-30T07:34:03.231Z,98843.59
2022-09-30T07:36:33.564Z,98828.50
2022-09-30T07:39:06.809Z,98851.19
2022-09-30T07:41:36.409Z,98851.97
2022-09-30T07:44:06.367Z,98859.53
2022-09-30T07:46:38.865Z,98862.06
2022-09-30T07:49:09.501Z,98861.19
2022-09-30T07:51:39.822Z,98868.75
2022-09-30T07:54:12.316Z,98864.56
2022-09-30T07:57:08.147Z,98872.97
2022-09-30T07:59:31.510Z,98872.13
2022-09-30T08:01:59.523Z,98878.00
2022-09-30T08:04:28.782Z,98883.03
2022-09-30T08:06:59.862Z,98884.72
2022-09-30T08:09:31.105Z,98880.50
2022-09-30T08:11:59.812Z,98881.31
2022-09-30T08:14:29.132Z,98887.19
2022-09-30T08:16:58.396Z,98892.28
2022-09-30T08:19:27.887Z,98903.16
2022-09-30T08:21:56.453Z,98895.59
2022-09-30T08:24:24.913Z,98900.59
2022-09-30T08:26:54.475Z,98894.72
2022-09-30T08:29:50.071Z,98893.00
2022-09-30T08:32:10.496Z,98905.56
2022-09-30T08:34:38.347Z,98908.09
2022-09-30T08:37:09.264Z,98914.81
2022-09-30T08:39:37.487Z,98922.34
2022-09-30T08:42:38.676Z,98920.63
2022-09-30T08:45:20.431Z,98923.13
2022-09-30T08:47:57.392Z,98915.56
2022-09-30T08:50:31.796Z,98932.31
2022-09-30T08:53:03.844Z,98910.56
2022-09-30T08:55:39.579Z,98933.22
2022-09-30T08:58:20.761Z,98933.22
2022-09-30T09:00:51.254Z,98934.91
2022-09-30T09:03:21.430Z,98939.94
2022-09-30T09:06:00.174Z,98948.34
2022-09-30T09:08:41.563Z,98945.00
2022-09-30T09:11:18.066Z,98950.00
2022-09-30T09:13:52.511Z,98960.91
2022-09-30T09:16:31.100Z,98961.75
2022-09-30T09:19:02.300Z,98965.91
2022-09-30T09:21:41.465Z,98964.22
2022-09-30T09:24:17.277Z,98956.66
2022-09-30T09:26:45.853Z,98963.38
2022-09-30T09:29:39.199Z,98966.75
2022-09-30T09:32:14.248Z,98965.91
2022-09-30T09:34:42.816Z,98980.16
2022-09-30T09:37:21.527Z,98910.59
2022-09-30T09:40:04.823Z,98933.22
2022-09-30T09:42:43.687Z,98913.97
2022-09-30T09:45:22.603Z,98977.66
2022-09-30T09:47:52.454Z,98930.75
2022-09-30T09:50:26.986Z,98921.50
2022-09-30T09:53:35.202Z,98908.91
2022-09-30T09:56:04.038Z,98972.59
2022-09-30T09:58:34.130Z,98968.41
2022-09-30T10:01:32.021Z,98979.31
2022-09-30T10:04:21.912Z,98976.81
2022-09-30T10:06:52.989Z,98985.19
2022-09-30T10:09:27.496Z,98981.78
2022-09-30T10:12:36.977Z,98982.63
2022-09-30T10:15:16.708Z,98980.03
2022-09-30T10:17:52.995Z,98986.66
2022-09-30T10:20:28.229Z,98980.69
2022-09-30T10:23:05.816Z,98983.97
2022-09-30T10:25:33.684Z,98986.47
2022-09-30T10:28:03.817Z,98982.25
2022-09-30T10:30:43.137Z,98979.72
2022-09-30T10:33:21.353Z,98988.09
2022-09-30T10:35:54.790Z,98992.25
2022-09-30T10:38:24.878Z,98980.53
2022-09-30T10:40:53.432Z,98996.44
2022-09-30T10:43:26.540Z,98998.94
2022-09-30T10:46:13.752Z,99002.25
2022-09-30T10:48:50.547Z,99009.72
2022-09-30T10:51:29.351Z,99010.47
2022-09-30T10:53:58.307Z,99028.00
2022-09-30T10:56:44.648Z,99022.94
2022-09-30T10:59:35.898Z,99038.88
2022-09-30T11:02:27.250Z,99043.13
2022-09-30T11:05:04.092Z,99051.56
2022-09-30T11:07:36.337Z,99060.84
2022-09-30T11:10:12.701Z,99054.94
2022-09-30T11:12:45.113Z,99060.91
2022-09-30T11:15:19.924Z,99070.22
2022-09-30T11:17:54.749Z,99077.06
2022-09-30T11:20:28.894Z,99082.09
2022-09-30T11:23:03.686Z,99077.06
2022-09-30T11:25:40.761Z,99057.59
2022-09-30T11:28:38.423Z,99058.28
2022-09-30T11:31:18.133Z,99064.81
2022-09-30T11:34:01.320Z,99067.16
2022-09-30T11:36:42.846Z,99068.00
2022-09-30T11:39:37.329Z,99088.94
2022-09-30T11:42:12.348Z,99092.41
2022-09-30T11:44:44.288Z,99096.63
2022-09-30T11:47:29.633Z,99098.97
2022-09-30T11:50:25.629Z,99092.16
2022-09-30T11:53:08.071Z,99109.88
2022-09-30T11:55:52.978Z,99116.59
2022-09-30T12:01:21.236Z,99122.59
2022-09-30T12:03:59.263Z,99109.16
2022-09-30T12:06:33.025Z,99117.69
2022-09-30T12:09:10.167Z,99129.63
2022-09-30T12:11:44.164Z,99135.59
2022-09-30T12:14:20.584Z,99140.63
2022-09-30T12:16:51.509Z,99141.47
2022-09-30T12:19:26.067Z,99140.47
2022-09-30T12:21:59.271Z,99142.81
2022-09-30T12:24:36.059Z,99138.53
2022-09-30T12:27:05.570Z,99151.13
2022-09-30T12:29:56.076Z,99153.63
2022-09-30T12:32:48.760Z,99158.69
2022-09-30T12:35:31.362Z,99151.19
2022-09-30T12:38:17.756Z,99163.00
2022-09-30T12:41:07.519Z,99162.13
2022-09-30T12:44:13.428Z,99157.88
2022-09-30T12:46:55.374Z,99159.44
2022-09-30T12:49:26.468Z,99139.97
2022-09-30T12:51:58.998Z,99156.75
2022-09-30T12:54:31.497Z,99155.84
2022-09-30T12:57:03.891Z,99162.59
2022-09-30T12:59:34.893Z,99159.19
2022-09-30T13:02:04.380Z,99152.53
2022-09-30T13:04:35.477Z,99162.59
2022-09-30T13:07:17.107Z,99169.28
2022-09-30T13:10:07.585Z,99167.63
2022-09-30T13:12:45.724Z,99172.81
2022-09-30T13:15:39.558Z,99189.03
2022-09-30T13:18:45.162Z,99183.25
2022-09-30T13:21:23.482Z,99182.38
2022-09-30T13:23:52.093Z,99194.13
2022-09-30T13:26:38.073Z,99185.66
2022-09-30T13:29:35.469Z,99189.06
2022-09-30T13:32:05.817Z,99199.13
2022-09-30T13:34:36.441Z,99188.91
2022-09-30T13:37:05.658Z,99186.34
2022-09-30T13:39:46.608Z,99196.44
2022-09-30T13:42:24.491Z,99188.72
2022-09-30T13:45:03.176Z,99195.50
2022-09-30T13:47:37.096Z,99203.13
2022-09-30T13:50:16.060Z,99203.97
2022-09-30T13:52:46.783Z,99215.78
2022-09-30T13:55:19.709Z,99209.25
2022-09-30T13:58:00.549Z,99217.69
2022-09-30T14:00:46.458Z,99207.59
2022-09-30T14:03:32.565Z,99217.03
2022-09-30T14:06:12.242Z,99223.91
2022-09-30T14:09:03.650Z,99233.28
2022-09-30T14:11:43.933Z,99244.28
2022-09-30T14:14:30.007Z,99230.97
2022-09-30T14:17:22.891Z,99236.06
2022-09-30T14:20:13.443Z,99243.72
2022-09-30T14:22:42.888Z,99240.31
2022-09-30T14:25:15.573Z,99235.28
2022-09-30T14:27:56.172Z,99240.34
2022-09-30T14:30:25.647Z,99238.72
2022-09-30T14:32:58.151Z,99239.56
2022-09-30T14:36:21.251Z,99252.22
2022-09-30T14:38:55.340Z,99259.81
2022-09-30T14:41:24.919Z,99257.28
2022-09-30T14:43:56.836Z,99262.38
2022-09-30T14:46:32.347Z,99262.41
2022-09-30T14:49:06.715Z,99280.03
2022-09-30T14:51:43.676Z,99287.63
2022-09-30T14:54:19.331Z,99297.69
2022-09-30T14:56:48.169Z,99272.44
2022-09-30T14:59:21.005Z,99294.31
2022-09-30T15:01:51.560Z,99277.50
2022-09-30T15:04:25.422Z,99233.78
2022-09-30T15:06:55.048Z,99249.72
2022-09-30T15:09:28.344Z,99242.19
2022-09-30T15:11:56.391Z,99245.50
2022-09-30T15:14:25.852Z,99240.50
2022-09-30T15:16:55.531Z,99275.78
2022-09-30T15:19:26.051Z,99239.66
2022-09-30T15:21:55.878Z,99275.78
2022-09-30T15:24:27.259Z,99278.28
2022-09-30T15:26:57.090Z,99234.56
2022-09-30T15:29:25.179Z,99243.84
2022-09-30T15:32:00.245Z,99206.84
2022-09-30T15:34:30.493Z,99251.41
2022-09-30T15:37:06.264Z,99257.28
2022-09-30T15:39:54.329Z,99236.28
2022-09-30T15:42:36.211Z,99294.28
2022-09-30T15:45:06.231Z,99225.34
2022-09-30T15:47:34.276Z,99255.59
2022-09-30T15:50:03.701Z,99268.22
2022-09-30T15:52:37.994Z,99266.53
2022-09-30T15:55:38.564Z,99269.91
2022-09-30T15:58:33.745Z,99274.09
2022-09-30T16:01:15.109Z,99283.31
2022-09-30T16:03:50.288Z,99283.31
2022-09-30T16:06:25.329Z,99270.69
2022-09-30T16:09:01.548Z,99322.81
2022-09-30T16:11:37.074Z,99300.94
2022-09-30T16:14:08.881Z,99310.16
2022-09-30T16:16:38.994Z,99290.84
2022-09-30T16:19:07.639Z,99288.28
2022-09-30T16:21:44.926Z,99343.78
2022-09-30T16:24:47.990Z,99336.22
2022-09-30T16:27:36.841Z,99306.75
2022-09-30T16:30:06.538Z,99311.78
2022-09-30T16:32:39.793Z,99352.16
2022-09-30T16:35:16.017Z,99312.63
2022-09-30T16:37:45.327Z,99348.75
2022-09-30T16:40:25.191Z,99320.94
2022-09-30T16:42:54.816Z,99325.13
2022-09-30T16:45:23.584Z,99314.97
2022-09-30T16:47:51.873Z,99361.22
2022-09-30T16:50:29.244Z,99367.97
2022-09-30T16:52:58.422Z,99376.38
2022-09-30T16:55:27.201Z,99374.69
2022-09-30T16:57:57.176Z,99376.38
2022-09-30T17:00:25.926Z,99384.78
2022-09-30T17:02:53.973Z,99380.56
2022-09-30T17:05:24.240Z,99377.19
2022-09-30T17:07:54.240Z,99378.00
2022-09-30T17:10:25.773Z,99383.03
2022-09-30T17:12:53.669Z,99383.00
2022-09-30T17:15:21.696Z,99386.34
2022-09-30T17:17:49.595Z,99380.47
2022-09-30T17:20:17.480Z,99389.69
2022-09-30T17:22:45.818Z,99395.56
2022-09-30T17:25:14.226Z,99395.53
2022-09-30T17:27:43.894Z,99396.38
2022-09-30T17:30:12.637Z,99404.75
2022-09-30T17:32:40.688Z,99403.03
2022-09-30T17:35:09.245Z,99398.81
2022-09-30T17:37:41.325Z,99403.06
2022-09-30T17:40:26.045Z,99405.56
2022-09-30T17:43:11.538Z,99408.06
2022-09-30T17:45:42.102Z,99417.28
2022-09-30T17:48:10.779Z,99411.41
2022-09-30T17:50:39.683Z,99413.00
2022-09-30T17:53:07.591Z,99415.50
2022-09-30T17:55:35.556Z,99423.00
2022-09-30T17:58:04.773Z,99428.03
2022-09-30T18:00:33.570Z,99432.19
2022-09-30T18:03:02.775Z,99440.59
2022-09-30T18:05:30.679Z,99433.06
2022-09-30T18:07:58.552Z,99438.09
2022-09-30T18:10:27.165Z,99444.84
2022-09-30T18:12:55.780Z,99431.38
2022-09-30T18:15:26.219Z,99453.34
2022-09-30T18:17:54.076Z,99456.72
2022-09-30T18:20:24.842Z,99453.38
2022-09-30T18:22:53.831Z,99455.03
2022-09-30T18:25:22.624Z,99451.66
2022-09-30T18:27:52.018Z,99452.47
2022-09-30T18:30:21.609Z,99456.69
2022-09-30T18:32:52.087Z,99461.75
2022-09-30T18:35:22.860Z,99461.75
2022-09-30T18:37:51.297Z,99455.88
2022-09-30T18:40:21.675Z,99466.00
2022-09-30T18:42:49.702Z,99466.06
2022-09-30T18:45:17.506Z,99461.03
2022-09-30T18:47:45.763Z,99471.13
2022-09-30T18:50:17.893Z,99466.94
2022-09-30T18:52:45.690Z,99460.22
2022-09-30T18:55:13.572Z,99473.66
2022-09-30T18:57:41.710Z,99474.47
2022-09-30T19:00:11.020Z,99464.41
2022-09-30T19:02:40.604Z,99471.94
2022-09-30T19:05:09.453Z,99477.78
2022-09-30T19:07:39.407Z,99476.97
2022-09-30T19:10:08.485Z,99471.91
2022-09-30T19:12:37.938Z,99472.66
2022-09-30T19:15:07.019Z,99459.94
2022-09-30T19:17:37.117Z,99456.59
2022-09-30T19:20:06.743Z,99465.84
2022-09-30T19:22:37.066Z,99470.03
2022-09-30T19:25:08.412Z,99478.50
2022-09-30T19:27:37.735Z,99472.66
2022-09-30T19:30:08.577Z,99470.13
2022-09-30T19:32:36.996Z,99465.09
2022-09-30T19:35:09.292Z,99465.13
2022-09-30T19:37:37.543Z,99453.34
2022-09-30T19:40:20.527Z,99447.34
2022-09-30T19:42:49.988Z,99448.97
2022-09-30T19:45:22.385Z,99445.63
2022-09-30T19:47:51.008Z,99441.44
2022-09-30T19:50:18.914Z,99441.50
2022-09-30T19:52:56.032Z,99443.22
2022-09-30T19:55:27.799Z,99444.09
2022-09-30T19:57:55.835Z,99448.25
2022-09-30T20:00:24.101Z,99453.25
2022-09-30T20:02:52.657Z,99456.63
2022-09-30T20:05:22.217Z,99456.56
2022-09-30T20:07:51.323Z,99477.66
2022-09-30T20:10:19.742Z,99468.47
2022-09-30T20:12:49.116Z,99462.56
2022-09-30T20:15:34.709Z,99432.19
2022-09-30T20:18:02.823Z,99433.06
2022-09-30T20:20:38.391Z,99460.91
2022-09-30T20:23:06.281Z,99436.44
2022-09-30T20:25:36.263Z,99428.03
2022-09-30T20:28:07.129Z,99441.44
2022-09-30T20:30:45.443Z,99424.63
2022-09-30T20:33:18.007Z,99424.59
2022-09-30T20:35:46.598Z,99470.13
2022-09-30T20:38:17.316Z,99417.78
2022-09-30T20:40:45.361Z,99442.13
2022-09-30T20:43:14.678Z,99440.41
2022-09-30T20:45:42.636Z,99477.50
2022-09-30T20:48:10.532Z,99478.34
2022-09-30T20:50:43.429Z,99456.41
2022-09-30T20:53:13.656Z,99490.97
2022-09-30T20:55:44.390Z,99446.31
2022-09-30T20:58:14.234Z,99463.19
2022-09-30T21:00:43.258Z,99508.72
2022-09-30T21:03:13.362Z,99502.84
2022-09-30T21:05:41.676Z,99476.75
2022-09-30T21:08:11.464Z,99499.53
2022-09-30T21:10:39.230Z,99505.41
2022-09-30T21:13:11.379Z,99502.06
2022-09-30T21:15:40.583Z,99486.06
2022-09-30T21:18:08.974Z,99491.94
2022-09-30T21:20:37.094Z,99496.03
2022-09-30T21:23:05.099Z,99483.28
2022-09-30T21:25:33.447Z,99478.19
2022-09-30T21:28:01.715Z,99478.13
2022-09-30T21:30:30.350Z,99469.59
2022-09-30T21:32:59.457Z,99471.28
2022-09-30T21:35:27.235Z,99464.50
2022-09-30T21:37:55.079Z,99453.63
2022-09-30T21:40:22.804Z,99455.28
2022-09-30T21:42:50.613Z,99443.56
2022-09-30T21:45:19.964Z,99436.03
2022-09-30T21:47:47.728Z,99439.41
2022-09-30T21:50:17.151Z,99434.47
2022-09-30T21:52:45.228Z,99431.22
2022-09-30T21:55:13.721Z,99433.78
2022-09-30T21:57:41.501Z,99440.56
2022-09-30T22:00:10.689Z,99442.22
2022-09-30T22:02:41.863Z,99439.69
2022-09-30T22:05:10.239Z,99445.50
2022-09-30T22:07:39.858Z,99447.97
2022-09-30T22:10:08.864Z,99458.06
2022-09-30T22:12:36.662Z,99474.03
2022-09-30T22:15:04.921Z,99481.59
2022-09-30T22:17:32.750Z,99477.41
2022-09-30T22:20:01.040Z,99477.47
2022-09-30T22:22:28.921Z,99473.13
2022-09-30T22:24:58.013Z,99467.94
2022-09-30T22:27:25.856Z,99470.31
2022-09-30T22:29:53.599Z,99471.03
2022-09-30T22:32:21.404Z,99465.88
2022-09-30T22:35:06.777Z,99474.97
2022-09-30T22:37:52.022Z,99470.72
2022-09-30T22:40:21.169Z,99485.84
2022-09-30T22:42:48.935Z,99483.47
2022-09-30T22:45:16.773Z,99487.72
2022-09-30T22:47:44.547Z,99480.91
2022-09-30T22:50:12.378Z,99479.19
2022-09-30T22:52:40.172Z,99473.28
2022-09-30T22:55:08.560Z,99482.47
2022-09-30T22:57:37.819Z,99473.19
2022-09-30T23:00:06.429Z,99484.91
2022-09-30T23:02:34.316Z,99480.69
2022-09-30T23:05:02.185Z,99477.31
2022-09-30T23:07:31.162Z,99470.69
2022-09-30T23:09:58.983Z,99480.72
2022-09-30T23:12:26.826Z,99483.31
2022-09-30T23:14:57.412Z,99480.81
2022-09-30T23:17:25.281Z,99477.56
2022-09-30T23:19:53.088Z,99483.44
2022-09-30T23:22:20.867Z,99472.50
2022-09-30T23:24:48.696Z,99483.41
2022-09-30T23:27:16.478Z,99487.66
2022-09-30T23:29:44.412Z,99490.34
2022-09-30T23:32:13.545Z,99486.97
2022-09-30T23:34:41.399Z,99503.03
2022-09-30T23:37:09.241Z,99504.81
2022-09-30T23:39:36.985Z,99506.53
2022-09-30T23:42:04.795Z,99511.66
2022-09-30T23:44:32.539Z,99510.03
2022-09-30T23:47:18.517Z,99502.50
2022-09-30T23:49:47.941Z,99510.88
2022-09-30T23:52:16.058Z,99510.09
2022-09-30T23:54:44.499Z,99495.75
2022-09-30T23:57:12.804Z,99505.06
2022-09-30T23:59:40.633Z,99505.13
